Kezdőlap
METAR-TAF:

METAR-TAF

Repülőterek :

Toncontín nemzetközi repülőtér

Tegucigalpa, Honduras

földrajzi szélesség: 14-03N, földrajzi hosszúság: 087-13W, magasság: 994 m

Jelenlegi meteorológiai megfigyelések

A jelentés 26 perccel ezelõtt készült, 11:00 UTC
Északi szél 8 kt
Hőmérséklet 16°C
Páratartalom 88%
Légköri nyomás 1019 hPa
Látótávolság: 7000 m
Kevés felhő 600 lábon
Szakadozott felhőzet 2400 lábon

METAR: MHTG 161100Z 36008KT 7000 FEW006 BKN024 16/14 Q1019 A3009 NOSIG

Idő: 05:26 (11:26 UTC)

Előrejelzés

A jelentés 6 órával és 46 perccel ezelõtt készült, 04:40 UTC
Az előrejelzés 16-én 06 óra UTC és 17-én 06 óra UTC között érvényes
Északi szél 12 kt
Látótávolság: 8000 m
Kevés felhő 700 lábon
Szórványos felhőzet 2200 lábon
16-én 10 óra UTC és 16-én 12 óra UTC között fokozatosan kialakuló
Látótávolság: 6000 m
Szórványos felhőzet 700 lábon
Szakadozott felhőzet 2200 lábon
16-én 15 óra UTC és 16-én 17 óra UTC között fokozatosan kialakuló
Észak-északkeleti szél 8 kt széllökések: 18 kt
Látótávolság 10 km, vagy több
Kevés felhő 1600 lábon
Szórványos felhőzet 2400 lábon
Valószínűség 30%
16-én 20 óra UTC és 16-én 22 óra UTC között
Dél-délnyugati szél 3 kt
Látótávolság: 7000 m
Kevés felhő 1200 lábon
Szakadozott felhőzet 2400 lábon
Szórványos felhőzet 2500 lábon
Szakadozott felhőzet 7000 lábon
Záporok a közelben, Záporok a közelben
16-én 10 óra UTC és 16-én 12 óra UTC között fokozatosan kialakuló
Látótávolság: 6000 m
Kevés felhő 800 lábon
Szórványos felhőzet 2400 lábon, Tornyos gomolyfelhő.
Borult 7000 lábon
enyhe esõ
16-én 17 óra UTC és 16-én 19 óra UTC között fokozatosan kialakuló
Nyugat-északnyugati szél 8 kt
Látótávolság 10 km, vagy több
Szórványos felhőzet 2400 lábon
Szakadozott felhőzet 8000 lábon
16-én 21 óra UTC és 16-én 23 óra UTC között fokozatosan kialakuló
Látótávolság: 4000 m
Szakadozott felhőzet 2400 lábon, Tornyos gomolyfelhő.
Borult 7000 lábon
esõ

TAF: MHTG 160440Z 1606/1706 36012KT 8000 FEW007 SCT022 TX23/1619Z TN15/1612Z BECMG 1610/1612 6000 SCT007 BKN022 BECMG 1615/1617 02008G18KT 9999 NSW FEW016 SCT024 PROB30 1620/1622 36014KT 8000 VCSH FEW012 BKN024 MHLM 160440Z 1606/1706 21003KT 7000 VCSH SCT025 BKN070 TX24/1620Z TN18/1612Z BECMG 1610/1612 6000 -RA FEW008 SCT024TCU OVC070 BECMG 1617/1619 30008KT 9999 NSW SCT024 BKN080 BECMG 1621/1623 4000 RA BKN024TCU OVC070

Meteorológiai megfigyelések és előrejelzések több, mint 4000 repülőtéren (METAR és TAF jelentéseket).

A térképen piros és sárga pontok jelzik az elérhető meteorológiai állomásokat.

Mozgassa az egeret a pont fölött, hogy megjelenjen az állomás neve.

Azután kattintson az időjárási megfigyelések és előrejelzések megtekintéséhez.

A térkép megváltoztatása: kattintson a fekete keresztel jelölt zöld gombra ráközelítéshez, a vonallal jelölt zöld gombra távolításhoz, vagy a zöld nyilakra a szomszédos térképek eléréséhez.


METAR-TAF: